sensor_id;sensor_type;location;lat;lon;timestamp;P1;durP1;ratioP1;P2;durP2;ratioP2
10446;SDS011;5271;44.422;26.092;2023-04-03T00:00:19;1.50;;;1.50;;
10446;SDS011;5271;44.422;26.092;2023-04-03T00:02:46;1.50;;;1.50;;
10446;SDS011;5271;44.422;26.092;2023-04-03T00:05:15;1.50;;;1.50;;
10446;SDS011;5271;44.422;26.092;2023-04-03T00:07:42;1.50;;;1.50;;
10446;SDS011;5271;44.422;26.092;2023-04-03T00:10:09;1.50;;;1.50;;
10446;SDS011;5271;44.422;26.092;2023-04-03T00:12:36;1.40;;;1.40;;
10446;SDS011;5271;44.422;26.092;2023-04-03T00:15:03;1.40;;;1.40;;
10446;SDS011;5271;44.422;26.092;2023-04-03T00:17:30;1.50;;;1.50;;
10446;SDS011;5271;44.422;26.092;2023-04-03T00:19:57;1.50;;;1.50;;
10446;SDS011;5271;44.422;26.092;2023-04-03T00:22:25;1.60;;;1.60;;
10446;SDS011;5271;44.422;26.092;2023-04-03T00:24:53;1.50;;;1.50;;
10446;SDS011;5271;44.422;26.092;2023-04-03T00:27:20;1.50;;;1.50;;
10446;SDS011;5271;44.422;26.092;2023-04-03T00:29:47;1.50;;;1.50;;
10446;SDS011;5271;44.422;26.092;2023-04-03T00:32:14;1.50;;;1.50;;
10446;SDS011;5271;44.422;26.092;2023-04-03T00:34:41;1.43;;;1.43;;
10446;SDS011;5271;44.422;26.092;2023-04-03T00:37:07;1.50;;;1.50;;
10446;SDS011;5271;44.422;26.092;2023-04-03T00:39:36;1.50;;;1.50;;
10446;SDS011;5271;44.422;26.092;2023-04-03T00:42:02;1.30;;;1.30;;
10446;SDS011;5271;44.422;26.092;2023-04-03T00:47:33;1.50;;;1.50;;
10446;SDS011;5271;44.422;26.092;2023-04-03T00:50:00;1.40;;;1.40;;
10446;SDS011;5271;44.422;26.092;2023-04-03T00:52:28;1.40;;;1.40;;
10446;SDS011;5271;44.422;26.092;2023-04-03T00:54:59;1.50;;;1.50;;
10446;SDS011;5271;44.422;26.092;2023-04-03T00:57:28;1.50;;;1.50;;
10446;SDS011;5271;44.422;26.092;2023-04-03T00:59:57;1.30;;;1.30;;
10446;SDS011;5271;44.422;26.092;2023-04-03T01:02:28;1.40;;;1.40;;
10446;SDS011;5271;44.422;26.092;2023-04-03T01:04:54;1.40;;;1.40;;
10446;SDS011;5271;44.422;26.092;2023-04-03T01:07:21;1.50;;;1.50;;
10446;SDS011;5271;44.422;26.092;2023-04-03T01:09:51;1.40;;;1.40;;
10446;SDS011;5271;44.422;26.092;2023-04-03T01:12:23;1.50;;;1.50;;
10446;SDS011;5271;44.422;26.092;2023-04-03T01:14:53;1.50;;;1.50;;
10446;SDS011;5271;44.422;26.092;2023-04-03T01:17:25;1.47;;;1.47;;
10446;SDS011;5271;44.422;26.092;2023-04-03T01:19:57;1.50;;;1.50;;
10446;SDS011;5271;44.422;26.092;2023-04-03T01:22:48;1.50;;;1.50;;
10446;SDS011;5271;44.422;26.092;2023-04-03T01:25:22;1.50;;;1.50;;
10446;SDS011;5271;44.422;26.092;2023-04-03T01:27:51;1.50;;;1.50;;
10446;SDS011;5271;44.422;26.092;2023-04-03T01:30:19;1.40;;;1.40;;
10446;SDS011;5271;44.422;26.092;2023-04-03T01:32:51;1.40;;;1.40;;
10446;SDS011;5271;44.422;26.092;2023-04-03T01:35:18;1.30;;;1.30;;
10446;SDS011;5271;44.422;26.092;2023-04-03T01:37:45;1.47;;;1.47;;
10446;SDS011;5271;44.422;26.092;2023-04-03T01:40:11;1.50;;;1.50;;
10446;SDS011;5271;44.422;26.092;2023-04-03T01:42:38;1.40;;;1.40;;
10446;SDS011;5271;44.422;26.092;2023-04-03T01:45:05;1.40;;;1.40;;
10446;SDS011;5271;44.422;26.092;2023-04-03T01:47:33;1.40;;;1.40;;
10446;SDS011;5271;44.422;26.092;2023-04-03T01:50:01;1.50;;;1.50;;
10446;SDS011;5271;44.422;26.092;2023-04-03T01:52:28;1.40;;;1.40;;
10446;SDS011;5271;44.422;26.092;2023-04-03T01:54:55;1.40;;;1.40;;
10446;SDS011;5271;44.422;26.092;2023-04-03T01:57:22;1.40;;;1.40;;
10446;SDS011;5271;44.422;26.092;2023-04-03T01:59:48;1.50;;;1.50;;
10446;SDS011;5271;44.422;26.092;2023-04-03T02:02:16;1.43;;;1.43;;
10446;SDS011;5271;44.422;26.092;2023-04-03T02:04:44;1.50;;;1.50;;
10446;SDS011;5271;44.422;26.092;2023-04-03T02:07:12;1.50;;;1.50;;
10446;SDS011;5271;44.422;26.092;2023-04-03T02:09:39;1.50;;;1.50;;
10446;SDS011;5271;44.422;26.092;2023-04-03T02:12:06;1.40;;;1.40;;
10446;SDS011;5271;44.422;26.092;2023-04-03T02:14:33;1.50;;;1.50;;
10446;SDS011;5271;44.422;26.092;2023-04-03T02:17:00;1.40;;;1.40;;
10446;SDS011;5271;44.422;26.092;2023-04-03T02:19:30;1.40;;;1.40;;
10446;SDS011;5271;44.422;26.092;2023-04-03T02:21:56;1.50;;;1.50;;
10446;SDS011;5271;44.422;26.092;2023-04-03T02:24:24;1.40;;;1.40;;
10446;SDS011;5271;44.422;26.092;2023-04-03T02:26:51;1.43;;;1.43;;
10446;SDS011;5271;44.422;26.092;2023-04-03T02:29:18;1.40;;;1.40;;
10446;SDS011;5271;44.422;26.092;2023-04-03T02:31:45;1.40;;;1.40;;
10446;SDS011;5271;44.422;26.092;2023-04-03T02:34:12;1.40;;;1.40;;
10446;SDS011;5271;44.422;26.092;2023-04-03T02:36:39;1.40;;;1.40;;
10446;SDS011;5271;44.422;26.092;2023-04-03T02:39:06;1.40;;;1.40;;
10446;SDS011;5271;44.422;26.092;2023-04-03T02:41:34;1.40;;;1.40;;
10446;SDS011;5271;44.422;26.092;2023-04-03T02:44:01;1.40;;;1.40;;
10446;SDS011;5271;44.422;26.092;2023-04-03T02:46:28;1.40;;;1.40;;
10446;SDS011;5271;44.422;26.092;2023-04-03T02:48:55;1.40;;;1.40;;
10446;SDS011;5271;44.422;26.092;2023-04-03T02:51:22;1.33;;;1.33;;
10446;SDS011;5271;44.422;26.092;2023-04-03T02:53:49;1.40;;;1.40;;
10446;SDS011;5271;44.422;26.092;2023-04-03T02:56:16;1.30;;;1.30;;
10446;SDS011;5271;44.422;26.092;2023-04-03T02:58:45;1.40;;;1.40;;
10446;SDS011;5271;44.422;26.092;2023-04-03T03:01:12;1.40;;;1.40;;
10446;SDS011;5271;44.422;26.092;2023-04-03T03:03:39;1.50;;;1.50;;
10446;SDS011;5271;44.422;26.092;2023-04-03T03:06:07;1.50;;;1.50;;
10446;SDS011;5271;44.422;26.092;2023-04-03T03:08:36;1.50;;;1.50;;
10446;SDS011;5271;44.422;26.092;2023-04-03T03:11:04;1.50;;;1.50;;
10446;SDS011;5271;44.422;26.092;2023-04-03T03:13:31;1.40;;;1.40;;
10446;SDS011;5271;44.422;26.092;2023-04-03T03:15:59;1.50;;;1.50;;
10446;SDS011;5271;44.422;26.092;2023-04-03T03:18:26;1.50;;;1.50;;
10446;SDS011;5271;44.422;26.092;2023-04-03T03:20:53;1.40;;;1.40;;
10446;SDS011;5271;44.422;26.092;2023-04-03T03:23:21;1.50;;;1.50;;
10446;SDS011;5271;44.422;26.092;2023-04-03T03:25:53;1.30;;;1.30;;
10446;SDS011;5271;44.422;26.092;2023-04-03T03:28:21;1.40;;;1.40;;
10446;SDS011;5271;44.422;26.092;2023-04-03T03:30:48;1.30;;;1.30;;
10446;SDS011;5271;44.422;26.092;2023-04-03T03:33:16;1.40;;;1.40;;
10446;SDS011;5271;44.422;26.092;2023-04-03T03:35:43;1.40;;;1.40;;
10446;SDS011;5271;44.422;26.092;2023-04-03T03:38:10;1.40;;;1.40;;
10446;SDS011;5271;44.422;26.092;2023-04-03T03:40:37;1.40;;;1.40;;
10446;SDS011;5271;44.422;26.092;2023-04-03T03:43:04;1.30;;;1.30;;
10446;SDS011;5271;44.422;26.092;2023-04-03T03:45:31;1.40;;;1.40;;
10446;SDS011;5271;44.422;26.092;2023-04-03T03:47:58;1.37;;;1.37;;
10446;SDS011;5271;44.422;26.092;2023-04-03T03:50:26;1.43;;;1.43;;
10446;SDS011;5271;44.422;26.092;2023-04-03T03:52:53;1.40;;;1.40;;
10446;SDS011;5271;44.422;26.092;2023-04-03T03:55:20;1.40;;;1.40;;
10446;SDS011;5271;44.422;26.092;2023-04-03T03:57:47;1.40;;;1.40;;
10446;SDS011;5271;44.422;26.092;2023-04-03T04:00:14;1.40;;;1.40;;
10446;SDS011;5271;44.422;26.092;2023-04-03T04:02:41;1.40;;;1.40;;
10446;SDS011;5271;44.422;26.092;2023-04-03T04:05:08;1.40;;;1.40;;
10446;SDS011;5271;44.422;26.092;2023-04-03T04:07:36;1.40;;;1.40;;
10446;SDS011;5271;44.422;26.092;2023-04-03T04:10:03;1.30;;;1.30;;
10446;SDS011;5271;44.422;26.092;2023-04-03T04:12:31;1.40;;;1.40;;
10446;SDS011;5271;44.422;26.092;2023-04-03T04:14:57;1.40;;;1.40;;
10446;SDS011;5271;44.422;26.092;2023-04-03T04:17:24;1.40;;;1.40;;
10446;SDS011;5271;44.422;26.092;2023-04-03T04:19:51;1.40;;;1.40;;
10446;SDS011;5271;44.422;26.092;2023-04-03T04:22:18;1.30;;;1.30;;
10446;SDS011;5271;44.422;26.092;2023-04-03T04:24:46;1.40;;;1.40;;
10446;SDS011;5271;44.422;26.092;2023-04-03T04:27:13;1.40;;;1.40;;
10446;SDS011;5271;44.422;26.092;2023-04-03T04:29:40;1.30;;;1.30;;
10446;SDS011;5271;44.422;26.092;2023-04-03T04:32:07;1.40;;;1.40;;
10446;SDS011;5271;44.422;26.092;2023-04-03T04:34:34;1.40;;;1.40;;
10446;SDS011;5271;44.422;26.092;2023-04-03T04:37:01;1.40;;;1.40;;
10446;SDS011;5271;44.422;26.092;2023-04-03T04:39:27;1.40;;;1.40;;
10446;SDS011;5271;44.422;26.092;2023-04-03T04:41:56;1.40;;;1.40;;
10446;SDS011;5271;44.422;26.092;2023-04-03T04:44:23;1.40;;;1.40;;
10446;SDS011;5271;44.422;26.092;2023-04-03T04:46:49;1.40;;;1.40;;
10446;SDS011;5271;44.422;26.092;2023-04-03T04:49:16;1.37;;;1.37;;
10446;SDS011;5271;44.422;26.092;2023-04-03T04:51:43;1.50;;;1.50;;
10446;SDS011;5271;44.422;26.092;2023-04-03T04:54:10;1.40;;;1.40;;
10446;SDS011;5271;44.422;26.092;2023-04-03T04:56:37;1.40;;;1.40;;
10446;SDS011;5271;44.422;26.092;2023-04-03T04:59:05;1.30;;;1.30;;
10446;SDS011;5271;44.422;26.092;2023-04-03T05:01:32;1.40;;;1.40;;
10446;SDS011;5271;44.422;26.092;2023-04-03T05:03:58;1.40;;;1.40;;
10446;SDS011;5271;44.422;26.092;2023-04-03T05:06:25;1.40;;;1.40;;
10446;SDS011;5271;44.422;26.092;2023-04-03T05:08:52;1.20;;;1.20;;
10446;SDS011;5271;44.422;26.092;2023-04-03T05:11:19;1.40;;;1.40;;
10446;SDS011;5271;44.422;26.092;2023-04-03T05:13:46;1.40;;;1.40;;
10446;SDS011;5271;44.422;26.092;2023-04-03T05:16:14;1.50;;;1.50;;
10446;SDS011;5271;44.422;26.092;2023-04-03T05:18:41;1.40;;;1.40;;
10446;SDS011;5271;44.422;26.092;2023-04-03T05:21:08;1.50;;;1.50;;
10446;SDS011;5271;44.422;26.092;2023-04-03T05:23:34;1.50;;;1.50;;
10446;SDS011;5271;44.422;26.092;2023-04-03T05:26:01;1.60;;;1.60;;
10446;SDS011;5271;44.422;26.092;2023-04-03T05:28:28;1.50;;;1.50;;
10446;SDS011;5271;44.422;26.092;2023-04-03T05:30:55;1.50;;;1.50;;
10446;SDS011;5271;44.422;26.092;2023-04-03T05:33:25;1.50;;;1.50;;
10446;SDS011;5271;44.422;26.092;2023-04-03T05:35:52;1.60;;;1.60;;
10446;SDS011;5271;44.422;26.092;2023-04-03T05:38:19;1.50;;;1.50;;
10446;SDS011;5271;44.422;26.092;2023-04-03T05:40:46;1.20;;;1.20;;
10446;SDS011;5271;44.422;26.092;2023-04-03T05:43:13;1.40;;;1.40;;
10446;SDS011;5271;44.422;26.092;2023-04-03T05:45:40;1.50;;;1.50;;
10446;SDS011;5271;44.422;26.092;2023-04-03T05:48:06;1.40;;;1.40;;
10446;SDS011;5271;44.422;26.092;2023-04-03T05:50:35;1.50;;;1.50;;
10446;SDS011;5271;44.422;26.092;2023-04-03T05:53:06;1.50;;;1.50;;
10446;SDS011;5271;44.422;26.092;2023-04-03T05:55:37;1.50;;;1.50;;
10446;SDS011;5271;44.422;26.092;2023-04-03T05:58:03;1.40;;;1.40;;
10446;SDS011;5271;44.422;26.092;2023-04-03T06:00:31;1.40;;;1.40;;
10446;SDS011;5271;44.422;26.092;2023-04-03T06:02:57;1.50;;;1.50;;
10446;SDS011;5271;44.422;26.092;2023-04-03T06:05:24;1.60;;;1.60;;
10446;SDS011;5271;44.422;26.092;2023-04-03T06:07:53;1.60;;;1.60;;
10446;SDS011;5271;44.422;26.092;2023-04-03T06:10:20;1.50;;;1.50;;
10446;SDS011;5271;44.422;26.092;2023-04-03T06:12:47;1.53;;;1.53;;
10446;SDS011;5271;44.422;26.092;2023-04-03T06:15:15;1.40;;;1.40;;
10446;SDS011;5271;44.422;26.092;2023-04-03T06:17:42;1.40;;;1.40;;
10446;SDS011;5271;44.422;26.092;2023-04-03T06:20:09;1.50;;;1.50;;
10446;SDS011;5271;44.422;26.092;2023-04-03T06:22:37;1.50;;;1.50;;
10446;SDS011;5271;44.422;26.092;2023-04-03T06:25:06;1.50;;;1.50;;
10446;SDS011;5271;44.422;26.092;2023-04-03T06:27:34;1.43;;;1.43;;
10446;SDS011;5271;44.422;26.092;2023-04-03T06:30:01;1.50;;;1.50;;
10446;SDS011;5271;44.422;26.092;2023-04-03T06:32:27;1.50;;;1.50;;
10446;SDS011;5271;44.422;26.092;2023-04-03T06:34:54;1.50;;;1.50;;
10446;SDS011;5271;44.422;26.092;2023-04-03T06:37:22;1.50;;;1.50;;
10446;SDS011;5271;44.422;26.092;2023-04-03T06:39:51;1.50;;;1.50;;
10446;SDS011;5271;44.422;26.092;2023-04-03T06:42:19;1.50;;;1.50;;
10446;SDS011;5271;44.422;26.092;2023-04-03T06:44:46;1.50;;;1.50;;
10446;SDS011;5271;44.422;26.092;2023-04-03T06:47:13;1.40;;;1.40;;
10446;SDS011;5271;44.422;26.092;2023-04-03T06:49:41;1.50;;;1.50;;
10446;SDS011;5271;44.422;26.092;2023-04-03T06:52:08;1.40;;;1.40;;
10446;SDS011;5271;44.422;26.092;2023-04-03T06:54:37;1.60;;;1.60;;
10446;SDS011;5271;44.422;26.092;2023-04-03T06:57:04;1.53;;;1.53;;
10446;SDS011;5271;44.422;26.092;2023-04-03T06:59:32;1.50;;;1.50;;
10446;SDS011;5271;44.422;26.092;2023-04-03T07:01:59;1.60;;;1.60;;
10446;SDS011;5271;44.422;26.092;2023-04-03T07:04:26;1.50;;;1.50;;
10446;SDS011;5271;44.422;26.092;2023-04-03T07:06:53;1.50;;;1.50;;
10446;SDS011;5271;44.422;26.092;2023-04-03T07:09:20;1.60;;;1.60;;
10446;SDS011;5271;44.422;26.092;2023-04-03T07:11:47;1.50;;;1.50;;
10446;SDS011;5271;44.422;26.092;2023-04-03T07:14:13;1.50;;;1.50;;
10446;SDS011;5271;44.422;26.092;2023-04-03T07:16:42;1.50;;;1.50;;
10446;SDS011;5271;44.422;26.092;2023-04-03T07:19:08;1.50;;;1.50;;
10446;SDS011;5271;44.422;26.092;2023-04-03T07:21:35;1.40;;;1.40;;
10446;SDS011;5271;44.422;26.092;2023-04-03T07:24:02;1.50;;;1.50;;
10446;SDS011;5271;44.422;26.092;2023-04-03T07:26:29;1.60;;;1.60;;
10446;SDS011;5271;44.422;26.092;2023-04-03T07:28:56;1.50;;;1.50;;
10446;SDS011;5271;44.422;26.092;2023-04-03T07:31:23;1.60;;;1.60;;
10446;SDS011;5271;44.422;26.092;2023-04-03T07:33:52;1.50;;;1.50;;
10446;SDS011;5271;44.422;26.092;2023-04-03T07:36:19;1.60;;;1.60;;
10446;SDS011;5271;44.422;26.092;2023-04-03T07:38:47;1.50;;;1.50;;
10446;SDS011;5271;44.422;26.092;2023-04-03T07:41:15;1.50;;;1.50;;
10446;SDS011;5271;44.422;26.092;2023-04-03T07:43:43;1.60;;;1.60;;
10446;SDS011;5271;44.422;26.092;2023-04-03T07:46:10;1.50;;;1.50;;
10446;SDS011;5271;44.422;26.092;2023-04-03T07:48:37;1.57;;;1.57;;
10446;SDS011;5271;44.422;26.092;2023-04-03T07:51:06;1.60;;;1.60;;
10446;SDS011;5271;44.422;26.092;2023-04-03T07:53:33;1.60;;;1.60;;
10446;SDS011;5271;44.422;26.092;2023-04-03T07:56:00;1.60;;;1.60;;
10446;SDS011;5271;44.422;26.092;2023-04-03T07:58:27;1.50;;;1.50;;
10446;SDS011;5271;44.422;26.092;2023-04-03T08:00:54;1.40;;;1.40;;
10446;SDS011;5271;44.422;26.092;2023-04-03T08:03:21;1.70;;;1.70;;
10446;SDS011;5271;44.422;26.092;2023-04-03T08:05:48;1.50;;;1.50;;
10446;SDS011;5271;44.422;26.092;2023-04-03T08:08:18;1.50;;;1.50;;
10446;SDS011;5271;44.422;26.092;2023-04-03T08:10:48;1.60;;;1.60;;
10446;SDS011;5271;44.422;26.092;2023-04-03T08:13:16;1.50;;;1.50;;
10446;SDS011;5271;44.422;26.092;2023-04-03T08:15:42;1.60;;;1.60;;
10446;SDS011;5271;44.422;26.092;2023-04-03T08:18:10;1.50;;;1.50;;
10446;SDS011;5271;44.422;26.092;2023-04-03T08:20:37;1.50;;;1.50;;
10446;SDS011;5271;44.422;26.092;2023-04-03T08:23:05;1.57;;;1.57;;
10446;SDS011;5271;44.422;26.092;2023-04-03T08:25:33;1.67;;;1.67;;
10446;SDS011;5271;44.422;26.092;2023-04-03T08:28:00;1.70;;;1.70;;
10446;SDS011;5271;44.422;26.092;2023-04-03T08:30:27;1.50;;;1.50;;
10446;SDS011;5271;44.422;26.092;2023-04-03T08:32:53;1.60;;;1.60;;
10446;SDS011;5271;44.422;26.092;2023-04-03T08:35:20;1.60;;;1.60;;
10446;SDS011;5271;44.422;26.092;2023-04-03T08:37:47;1.50;;;1.50;;
10446;SDS011;5271;44.422;26.092;2023-04-03T08:40:14;1.50;;;1.50;;
10446;SDS011;5271;44.422;26.092;2023-04-03T08:42:47;1.57;;;1.57;;
10446;SDS011;5271;44.422;26.092;2023-04-03T08:45:21;1.53;;;1.53;;
10446;SDS011;5271;44.422;26.092;2023-04-03T08:47:59;1.60;;;1.60;;
10446;SDS011;5271;44.422;26.092;2023-04-03T08:50:33;1.60;;;1.60;;
10446;SDS011;5271;44.422;26.092;2023-04-03T08:53:05;1.70;;;1.70;;
10446;SDS011;5271;44.422;26.092;2023-04-03T08:55:37;1.50;;;1.50;;
10446;SDS011;5271;44.422;26.092;2023-04-03T08:58:11;1.60;;;1.60;;
10446;SDS011;5271;44.422;26.092;2023-04-03T09:00:43;1.50;;;1.50;;
10446;SDS011;5271;44.422;26.092;2023-04-03T09:03:12;1.60;;;1.60;;
10446;SDS011;5271;44.422;26.092;2023-04-03T09:05:42;1.70;;;1.70;;
10446;SDS011;5271;44.422;26.092;2023-04-03T09:08:15;1.60;;;1.60;;
10446;SDS011;5271;44.422;26.092;2023-04-03T09:10:48;1.60;;;1.60;;
10446;SDS011;5271;44.422;26.092;2023-04-03T09:13:22;1.50;;;1.50;;
10446;SDS011;5271;44.422;26.092;2023-04-03T09:15:53;1.60;;;1.60;;
10446;SDS011;5271;44.422;26.092;2023-04-03T09:18:21;1.60;;;1.60;;
10446;SDS011;5271;44.422;26.092;2023-04-03T09:20:53;1.60;;;1.60;;
10446;SDS011;5271;44.422;26.092;2023-04-03T09:23:28;1.50;;;1.50;;
10446;SDS011;5271;44.422;26.092;2023-04-03T09:26:01;1.60;;;1.60;;
10446;SDS011;5271;44.422;26.092;2023-04-03T09:28:33;1.60;;;1.60;;
10446;SDS011;5271;44.422;26.092;2023-04-03T09:31:05;1.53;;;1.53;;
10446;SDS011;5271;44.422;26.092;2023-04-03T09:33:43;1.50;;;1.50;;
10446;SDS011;5271;44.422;26.092;2023-04-03T09:36:11;1.60;;;1.60;;
10446;SDS011;5271;44.422;26.092;2023-04-03T09:38:38;1.70;;;1.70;;
10446;SDS011;5271;44.422;26.092;2023-04-03T09:41:06;1.60;;;1.60;;
10446;SDS011;5271;44.422;26.092;2023-04-03T09:43:41;1.60;;;1.60;;
10446;SDS011;5271;44.422;26.092;2023-04-03T09:46:23;1.60;;;1.60;;
10446;SDS011;5271;44.422;26.092;2023-04-03T09:48:55;1.60;;;1.60;;
10446;SDS011;5271;44.422;26.092;2023-04-03T09:51:25;1.50;;;1.50;;
10446;SDS011;5271;44.422;26.092;2023-04-03T09:53:53;1.50;;;1.50;;
10446;SDS011;5271;44.422;26.092;2023-04-03T09:56:22;1.50;;;1.50;;
10446;SDS011;5271;44.422;26.092;2023-04-03T09:59:04;1.50;;;1.50;;
10446;SDS011;5271;44.422;26.092;2023-04-03T10:01:41;1.50;;;1.50;;
10446;SDS011;5271;44.422;26.092;2023-04-03T10:04:11;1.60;;;1.60;;
10446;SDS011;5271;44.422;26.092;2023-04-03T10:06:39;1.60;;;1.60;;
10446;SDS011;5271;44.422;26.092;2023-04-03T10:09:16;1.70;;;1.70;;
10446;SDS011;5271;44.422;26.092;2023-04-03T10:11:59;1.60;;;1.60;;
10446;SDS011;5271;44.422;26.092;2023-04-03T10:14:31;1.67;;;1.67;;
10446;SDS011;5271;44.422;26.092;2023-04-03T10:17:03;1.60;;;1.60;;
10446;SDS011;5271;44.422;26.092;2023-04-03T10:19:40;1.50;;;1.50;;
10446;SDS011;5271;44.422;26.092;2023-04-03T10:22:13;1.50;;;1.50;;
10446;SDS011;5271;44.422;26.092;2023-04-03T10:27:33;1.50;;;1.50;;
10446;SDS011;5271;44.422;26.092;2023-04-03T10:30:13;1.50;;;1.50;;
10446;SDS011;5271;44.422;26.092;2023-04-03T10:32:54;1.50;;;1.50;;
10446;SDS011;5271;44.422;26.092;2023-04-03T10:35:30;1.50;;;1.50;;
10446;SDS011;5271;44.422;26.092;2023-04-03T10:38:08;1.60;;;1.60;;
10446;SDS011;5271;44.422;26.092;2023-04-03T10:40:41;1.60;;;1.60;;
10446;SDS011;5271;44.422;26.092;2023-04-03T10:43:18;1.60;;;1.60;;
10446;SDS011;5271;44.422;26.092;2023-04-03T10:45:53;1.50;;;1.50;;
10446;SDS011;5271;44.422;26.092;2023-04-03T10:51:25;1.50;;;1.50;;
10446;SDS011;5271;44.422;26.092;2023-04-03T10:53:56;1.60;;;1.60;;
10446;SDS011;5271;44.422;26.092;2023-04-03T10:56:32;1.50;;;1.50;;
10446;SDS011;5271;44.422;26.092;2023-04-03T10:59:13;1.53;;;1.53;;
10446;SDS011;5271;44.422;26.092;2023-04-03T11:01:53;1.57;;;1.57;;
10446;SDS011;5271;44.422;26.092;2023-04-03T11:04:22;1.60;;;1.60;;
10446;SDS011;5271;44.422;26.092;2023-04-03T11:06:53;1.60;;;1.60;;
10446;SDS011;5271;44.422;26.092;2023-04-03T11:09:27;1.50;;;1.50;;
10446;SDS011;5271;44.422;26.092;2023-04-03T11:11:57;1.50;;;1.50;;
10446;SDS011;5271;44.422;26.092;2023-04-03T11:14:29;1.57;;;1.57;;
10446;SDS011;5271;44.422;26.092;2023-04-03T11:17:04;1.60;;;1.60;;
10446;SDS011;5271;44.422;26.092;2023-04-03T11:19:38;1.60;;;1.60;;
10446;SDS011;5271;44.422;26.092;2023-04-03T11:22:10;1.60;;;1.60;;
10446;SDS011;5271;44.422;26.092;2023-04-03T11:24:41;1.60;;;1.60;;
10446;SDS011;5271;44.422;26.092;2023-04-03T11:27:15;1.60;;;1.60;;
10446;SDS011;5271;44.422;26.092;2023-04-03T11:29:47;1.50;;;1.50;;
10446;SDS011;5271;44.422;26.092;2023-04-03T11:32:23;1.50;;;1.50;;
10446;SDS011;5271;44.422;26.092;2023-04-03T11:34:58;1.50;;;1.50;;
10446;SDS011;5271;44.422;26.092;2023-04-03T11:37:28;1.50;;;1.50;;
10446;SDS011;5271;44.422;26.092;2023-04-03T11:39:59;1.40;;;1.40;;
10446;SDS011;5271;44.422;26.092;2023-04-03T11:42:32;1.50;;;1.50;;
10446;SDS011;5271;44.422;26.092;2023-04-03T11:45:24;1.50;;;1.50;;
10446;SDS011;5271;44.422;26.092;2023-04-03T11:47:58;1.40;;;1.40;;
10446;SDS011;5271;44.422;26.092;2023-04-03T11:50:42;1.30;;;1.30;;
10446;SDS011;5271;44.422;26.092;2023-04-03T11:53:27;1.30;;;1.30;;
10446;SDS011;5271;44.422;26.092;2023-04-03T11:56:03;1.40;;;1.40;;
10446;SDS011;5271;44.422;26.092;2023-04-03T11:58:52;1.40;;;1.40;;
10446;SDS011;5271;44.422;26.092;2023-04-03T12:01:45;1.43;;;1.43;;
10446;SDS011;5271;44.422;26.092;2023-04-03T12:04:14;1.50;;;1.50;;
10446;SDS011;5271;44.422;26.092;2023-04-03T12:12:29;1.40;;;1.40;;
10446;SDS011;5271;44.422;26.092;2023-04-03T12:15:21;1.40;;;1.40;;
10446;SDS011;5271;44.422;26.092;2023-04-03T12:18:36;1.50;;;1.50;;
10446;SDS011;5271;44.422;26.092;2023-04-03T12:21:09;1.50;;;1.50;;
10446;SDS011;5271;44.422;26.092;2023-04-03T12:23:56;1.50;;;1.50;;
10446;SDS011;5271;44.422;26.092;2023-04-03T12:26:32;1.50;;;1.50;;
10446;SDS011;5271;44.422;26.092;2023-04-03T12:29:10;1.40;;;1.40;;
10446;SDS011;5271;44.422;26.092;2023-04-03T12:31:43;1.50;;;1.50;;
10446;SDS011;5271;44.422;26.092;2023-04-03T12:34:24;1.40;;;1.40;;
10446;SDS011;5271;44.422;26.092;2023-04-03T12:37:03;1.50;;;1.50;;
10446;SDS011;5271;44.422;26.092;2023-04-03T12:39:43;1.40;;;1.40;;
10446;SDS011;5271;44.422;26.092;2023-04-03T12:42:45;1.40;;;1.40;;
10446;SDS011;5271;44.422;26.092;2023-04-03T12:45:29;1.40;;;1.40;;
10446;SDS011;5271;44.422;26.092;2023-04-03T12:48:08;1.40;;;1.40;;
10446;SDS011;5271;44.422;26.092;2023-04-03T12:50:40;1.40;;;1.40;;
10446;SDS011;5271;44.422;26.092;2023-04-03T12:53:13;1.40;;;1.40;;
10446;SDS011;5271;44.422;26.092;2023-04-03T12:55:43;1.40;;;1.40;;
10446;SDS011;5271;44.422;26.092;2023-04-03T12:58:13;1.40;;;1.40;;
10446;SDS011;5271;44.422;26.092;2023-04-03T13:00:42;1.40;;;1.40;;
10446;SDS011;5271;44.422;26.092;2023-04-03T13:03:19;1.40;;;1.40;;
10446;SDS011;5271;44.422;26.092;2023-04-03T13:05:51;1.40;;;1.40;;
10446;SDS011;5271;44.422;26.092;2023-04-03T13:08:21;1.40;;;1.40;;
10446;SDS011;5271;44.422;26.092;2023-04-03T13:10:51;1.40;;;1.40;;
10446;SDS011;5271;44.422;26.092;2023-04-03T13:13:21;1.40;;;1.40;;
10446;SDS011;5271;44.422;26.092;2023-04-03T13:15:49;1.40;;;1.40;;
10446;SDS011;5271;44.422;26.092;2023-04-03T13:18:25;1.30;;;1.30;;
10446;SDS011;5271;44.422;26.092;2023-04-03T13:20:58;1.40;;;1.40;;
10446;SDS011;5271;44.422;26.092;2023-04-03T13:23:31;1.30;;;1.30;;
10446;SDS011;5271;44.422;26.092;2023-04-03T13:26:01;1.40;;;1.40;;
10446;SDS011;5271;44.422;26.092;2023-04-03T13:28:29;1.40;;;1.40;;
10446;SDS011;5271;44.422;26.092;2023-04-03T13:31:02;1.30;;;1.30;;
10446;SDS011;5271;44.422;26.092;2023-04-03T13:33:33;1.30;;;1.30;;
10446;SDS011;5271;44.422;26.092;2023-04-03T13:36:03;1.30;;;1.30;;
10446;SDS011;5271;44.422;26.092;2023-04-03T13:38:33;1.30;;;1.30;;
10446;SDS011;5271;44.422;26.092;2023-04-03T13:41:02;1.30;;;1.30;;
10446;SDS011;5271;44.422;26.092;2023-04-03T13:43:33;1.30;;;1.30;;
10446;SDS011;5271;44.422;26.092;2023-04-03T13:46:03;1.30;;;1.30;;
10446;SDS011;5271;44.422;26.092;2023-04-03T13:48:47;1.20;;;1.20;;
10446;SDS011;5271;44.422;26.092;2023-04-03T13:51:20;1.40;;;1.40;;
10446;SDS011;5271;44.422;26.092;2023-04-03T13:53:51;1.30;;;1.30;;
10446;SDS011;5271;44.422;26.092;2023-04-03T13:56:22;1.40;;;1.40;;
10446;SDS011;5271;44.422;26.092;2023-04-03T13:59:04;1.37;;;1.37;;
10446;SDS011;5271;44.422;26.092;2023-04-03T14:01:47;1.30;;;1.30;;
10446;SDS011;5271;44.422;26.092;2023-04-03T14:04:19;1.30;;;1.30;;
10446;SDS011;5271;44.422;26.092;2023-04-03T14:06:47;1.30;;;1.30;;
10446;SDS011;5271;44.422;26.092;2023-04-03T14:09:16;1.40;;;1.40;;
10446;SDS011;5271;44.422;26.092;2023-04-03T14:11:44;1.30;;;1.30;;
10446;SDS011;5271;44.422;26.092;2023-04-03T14:14:13;1.40;;;1.40;;
10446;SDS011;5271;44.422;26.092;2023-04-03T14:16:42;1.30;;;1.30;;
10446;SDS011;5271;44.422;26.092;2023-04-03T14:19:18;1.30;;;1.30;;
10446;SDS011;5271;44.422;26.092;2023-04-03T14:21:48;1.20;;;1.20;;
10446;SDS011;5271;44.422;26.092;2023-04-03T14:24:17;1.30;;;1.30;;
10446;SDS011;5271;44.422;26.092;2023-04-03T14:26:44;1.30;;;1.30;;
10446;SDS011;5271;44.422;26.092;2023-04-03T14:29:12;1.30;;;1.30;;
10446;SDS011;5271;44.422;26.092;2023-04-03T14:31:40;1.40;;;1.40;;
10446;SDS011;5271;44.422;26.092;2023-04-03T14:34:09;1.40;;;1.40;;
10446;SDS011;5271;44.422;26.092;2023-04-03T14:36:36;1.30;;;1.30;;
10446;SDS011;5271;44.422;26.092;2023-04-03T14:39:05;1.40;;;1.40;;
10446;SDS011;5271;44.422;26.092;2023-04-03T14:41:35;1.40;;;1.40;;
10446;SDS011;5271;44.422;26.092;2023-04-03T14:44:02;1.40;;;1.40;;
10446;SDS011;5271;44.422;26.092;2023-04-03T14:46:29;1.40;;;1.40;;
10446;SDS011;5271;44.422;26.092;2023-04-03T14:48:58;1.40;;;1.40;;
10446;SDS011;5271;44.422;26.092;2023-04-03T14:51:25;1.40;;;1.40;;
10446;SDS011;5271;44.422;26.092;2023-04-03T14:53:52;1.40;;;1.40;;
10446;SDS011;5271;44.422;26.092;2023-04-03T14:56:21;1.40;;;1.40;;
10446;SDS011;5271;44.422;26.092;2023-04-03T14:58:54;1.30;;;1.30;;
10446;SDS011;5271;44.422;26.092;2023-04-03T15:01:23;1.30;;;1.30;;
10446;SDS011;5271;44.422;26.092;2023-04-03T15:03:50;1.40;;;1.40;;
10446;SDS011;5271;44.422;26.092;2023-04-03T15:06:17;1.40;;;1.40;;
10446;SDS011;5271;44.422;26.092;2023-04-03T15:08:44;1.30;;;1.30;;
10446;SDS011;5271;44.422;26.092;2023-04-03T15:11:12;1.30;;;1.30;;
10446;SDS011;5271;44.422;26.092;2023-04-03T15:13:40;1.30;;;1.30;;
10446;SDS011;5271;44.422;26.092;2023-04-03T15:16:12;1.30;;;1.30;;
10446;SDS011;5271;44.422;26.092;2023-04-03T15:18:41;1.30;;;1.30;;